createdAt,value
2022-08-09T00:01:54.893Z,7.72
2022-08-09T00:04:34.314Z,8.32
2022-08-09T00:07:10.741Z,6.27
2022-08-09T00:09:40.911Z,6.20
2022-08-09T00:12:22.513Z,7.95
2022-08-09T00:14:55.895Z,9.00
2022-08-09T00:18:07.585Z,6.43
2022-08-09T00:20:17.142Z,5.25
2022-08-09T00:22:49.843Z,6.70
2022-08-09T00:25:23.370Z,6.88
2022-08-09T00:28:04.155Z,6.18
2022-08-09T00:30:34.225Z,6.60
2022-08-09T00:33:04.096Z,7.65
2022-08-09T00:35:43.011Z,5.80
2022-08-09T00:38:16.159Z,8.23
2022-08-09T00:40:53.271Z,5.82
2022-08-09T00:44:14.580Z,7.57
2022-08-09T00:46:14.553Z,9.10
2022-08-09T00:49:04.013Z,7.25
2022-08-09T00:51:42.572Z,6.10
2022-08-09T00:54:19.368Z,4.88
2022-08-09T00:56:49.524Z,7.63
2022-08-09T00:59:41.693Z,4.38
2022-08-09T01:02:10.202Z,5.03
2022-08-09T01:04:51.020Z,8.77
2022-08-09T01:07:37.995Z,6.97
2022-08-09T01:10:23.359Z,6.97
2022-08-09T01:13:02.621Z,7.47
2022-08-09T01:15:40.814Z,5.88
2022-08-09T01:18:14.437Z,7.83
2022-08-09T01:20:49.756Z,8.17
2022-08-09T01:24:02.043Z,10.75
2022-08-09T01:26:41.705Z,10.33
2022-08-09T01:29:13.200Z,7.05
2022-08-09T01:32:31.187Z,6.70
2022-08-09T01:34:37.707Z,7.17
2022-08-09T01:37:09.302Z,5.18
2022-08-09T01:39:40.010Z,5.57
2022-08-09T01:42:12.546Z,5.40
2022-08-09T01:44:43.076Z,7.00
2022-08-09T01:47:13.413Z,7.95
2022-08-09T01:49:54.514Z,7.13
2022-08-09T01:52:25.287Z,10.70
2022-08-09T01:54:59.305Z,8.80
2022-08-09T01:57:40.097Z,8.70
2022-08-09T02:00:34.675Z,5.93
2022-08-09T02:03:11.370Z,6.07
2022-08-09T02:06:03.642Z,9.77
2022-08-09T02:08:41.255Z,6.43
2022-08-09T02:11:24.736Z,7.80
2022-08-09T02:14:25.660Z,8.87
2022-08-09T02:17:14.773Z,11.70
2022-08-09T02:19:47.628Z,6.93
2022-08-09T02:22:38.079Z,5.05
2022-08-09T02:25:17.036Z,6.88
2022-08-09T02:28:00.601Z,7.80
2022-08-09T02:30:41.522Z,9.40
2022-08-09T02:33:14.235Z,10.43
2022-08-09T02:36:02.838Z,6.13
2022-08-09T02:38:38.033Z,8.52
2022-08-09T02:41:12.408Z,9.23
2022-08-09T02:43:54.643Z,6.75
2022-08-09T02:46:29.835Z,7.30
2022-08-09T02:49:02.829Z,6.13
2022-08-09T02:51:40.245Z,5.40
2022-08-09T02:54:13.974Z,5.80
2022-08-09T02:56:51.287Z,8.65
2022-08-09T02:59:36.703Z,8.18
2022-08-09T03:02:17.069Z,8.23
2022-08-09T03:04:50.774Z,6.78
2022-08-09T03:07:21.482Z,9.17
2022-08-09T03:09:54.410Z,14.00
2022-08-09T03:12:27.510Z,8.82
2022-08-09T03:14:58.638Z,6.30
2022-08-09T03:17:31.645Z,7.53
2022-08-09T03:20:11.059Z,6.95
2022-08-09T03:22:44.705Z,5.53
2022-08-09T03:25:26.775Z,8.20
2022-08-09T03:28:26.206Z,6.63
2022-08-09T03:30:57.137Z,6.70
2022-08-09T03:33:54.176Z,12.30
2022-08-09T03:36:19.419Z,8.63
2022-08-09T03:38:50.796Z,8.63
2022-08-09T03:41:20.513Z,7.93
2022-08-09T03:44:07.784Z,6.50
2022-08-09T03:46:39.105Z,6.03
2022-08-09T03:49:11.789Z,9.32
2022-08-09T03:51:58.143Z,9.13
2022-08-09T03:54:34.515Z,8.82
2022-08-09T03:57:17.916Z,8.50
2022-08-09T03:59:54.265Z,8.35
2022-08-09T04:02:28.347Z,10.70
2022-08-09T04:05:06.433Z,10.38
2022-08-09T04:07:53.294Z,8.75
2022-08-09T04:10:29.400Z,8.82
2022-08-09T04:13:04.040Z,6.03
2022-08-09T04:15:52.502Z,8.20
2022-08-09T04:18:24.982Z,13.00
2022-08-09T04:20:57.640Z,6.10
2022-08-09T04:23:27.472Z,6.82
2022-08-09T04:25:58.013Z,5.93
2022-08-09T04:28:34.241Z,8.10
2022-08-09T04:31:08.120Z,8.73
2022-08-09T04:33:51.981Z,9.35
2022-08-09T04:36:28.091Z,7.55
2022-08-09T04:39:00.032Z,8.70
2022-08-09T04:41:33.240Z,7.15
2022-08-09T04:44:06.076Z,7.97
2022-08-09T04:46:58.314Z,8.00
2022-08-09T04:49:55.070Z,8.10
2022-08-09T04:52:27.546Z,5.25
2022-08-09T04:54:57.999Z,9.27
2022-08-09T04:57:59.070Z,7.83
2022-08-09T05:00:18.629Z,9.75
2022-08-09T05:02:48.616Z,10.85
2022-08-09T05:05:31.810Z,10.77
2022-08-09T05:08:15.582Z,8.82
2022-08-09T05:10:47.599Z,9.68
2022-08-09T05:13:17.311Z,8.20
2022-08-09T05:15:52.071Z,8.50
2022-08-09T05:18:39.912Z,6.90
2022-08-09T05:21:19.934Z,8.77
2022-08-09T05:24:01.008Z,8.48
2022-08-09T05:26:37.091Z,9.02
2022-08-09T05:29:21.864Z,8.32
2022-08-09T05:31:58.426Z,11.13
2022-08-09T05:34:31.142Z,10.00
2022-08-09T05:37:06.182Z,9.23
2022-08-09T05:39:43.602Z,16.13
2022-08-09T05:42:17.409Z,9.15
2022-08-09T05:44:51.724Z,13.98
2022-08-09T05:47:22.861Z,14.17
2022-08-09T05:50:30.349Z,11.80
2022-08-09T05:52:43.323Z,11.73
2022-08-09T05:55:20.377Z,11.77
2022-08-09T05:57:56.682Z,12.70
2022-08-09T06:00:29.071Z,15.18
2022-08-09T06:02:59.499Z,12.52
2022-08-09T06:05:31.371Z,13.32
2022-08-09T06:08:24.617Z,9.43
2022-08-09T06:10:59.148Z,11.15
2022-08-09T06:13:33.944Z,14.98
2022-08-09T06:16:04.840Z,16.58
2022-08-09T06:18:35.428Z,14.33
2022-08-09T06:21:08.093Z,15.47
2022-08-09T06:23:57.962Z,11.20
2022-08-09T06:26:30.292Z,13.53
2022-08-09T06:29:04.955Z,14.45
2022-08-09T06:31:40.315Z,10.80
2022-08-09T06:34:26.278Z,10.50
2022-08-09T06:37:00.146Z,11.90
2022-08-09T06:39:49.086Z,13.80
2022-08-09T06:42:24.955Z,14.82
2022-08-09T06:44:58.965Z,14.35
2022-08-09T06:47:39.815Z,16.42
2022-08-09T06:50:16.688Z,13.00
2022-08-09T06:52:49.119Z,10.82
2022-08-09T06:55:22.435Z,12.10
2022-08-09T06:58:03.159Z,12.02
2022-08-09T07:00:51.955Z,9.85
2022-08-09T07:03:27.605Z,11.35
2022-08-09T07:06:03.771Z,10.55
2022-08-09T07:08:37.355Z,10.82
2022-08-09T07:11:12.598Z,12.38
2022-08-09T07:14:04.880Z,13.38
2022-08-09T07:16:43.303Z,15.52
2022-08-09T07:19:18.492Z,12.95
2022-08-09T07:21:57.638Z,9.10
2022-08-09T07:24:32.128Z,16.05
2022-08-09T07:27:26.718Z,10.33
2022-08-09T07:30:03.809Z,14.18
2022-08-09T07:32:35.437Z,11.70
2022-08-09T07:35:08.146Z,12.30
2022-08-09T07:37:44.068Z,9.35
2022-08-09T07:40:17.693Z,12.80
2022-08-09T07:42:55.955Z,13.65
2022-08-09T07:45:39.787Z,11.57
2022-08-09T07:48:25.229Z,14.77
2022-08-09T07:51:10.372Z,13.43
2022-08-09T07:54:06.183Z,11.27
2022-08-09T07:56:44.961Z,9.63
2022-08-09T07:59:34.267Z,10.48
2022-08-09T08:02:19.096Z,10.80
2022-08-09T08:04:53.510Z,10.40
2022-08-09T08:08:43.469Z,9.32
2022-08-09T08:10:13.523Z,11.25
2022-08-09T08:12:45.616Z,11.10
2022-08-09T08:15:24.315Z,12.70
2022-08-09T08:17:58.670Z,7.97
2022-08-09T08:20:32.280Z,7.78
2022-08-09T08:23:16.086Z,11.83
2022-08-09T08:25:50.374Z,7.87
2022-08-09T08:28:35.896Z,8.82
2022-08-09T08:31:13.871Z,10.18
2022-08-09T08:33:53.138Z,10.70
2022-08-09T08:36:29.494Z,9.37
2022-08-09T08:39:00.768Z,9.18
2022-08-09T08:41:51.169Z,11.05
2022-08-09T08:44:27.505Z,9.30
2022-08-09T08:47:05.013Z,8.75
2022-08-09T08:49:48.520Z,9.02
2022-08-09T08:55:19.067Z,8.63
2022-08-09T08:57:56.141Z,10.73
2022-08-09T09:00:30.022Z,12.27
2022-08-09T09:03:08.720Z,10.73
2022-08-09T09:05:58.437Z,10.23
2022-08-09T09:08:37.611Z,5.95
2022-08-09T09:11:13.613Z,8.45
2022-08-09T09:13:56.282Z,10.95
2022-08-09T09:16:30.693Z,5.60
2022-08-09T09:19:22.740Z,7.80
2022-08-09T09:22:07.695Z,9.30
2022-08-09T09:24:43.403Z,7.53
2022-08-09T09:27:22.119Z,7.70
2022-08-09T09:30:38.266Z,10.23
2022-08-09T09:33:15.912Z,7.15
2022-08-09T09:36:01.703Z,7.80
2022-08-09T09:38:49.245Z,8.38
2022-08-09T09:41:48.740Z,7.60
2022-08-09T09:44:31.635Z,8.95
2022-08-09T09:47:10.113Z,12.37
2022-08-09T09:50:07.195Z,9.60
2022-08-09T09:52:57.373Z,6.18
2022-08-09T09:55:32.944Z,9.07
2022-08-09T09:58:16.469Z,9.50
2022-08-09T10:00:54.059Z,11.00
2022-08-09T10:03:58.065Z,13.02
2022-08-09T10:06:32.134Z,7.88
2022-08-09T10:09:21.544Z,7.53
2022-08-09T10:12:12.506Z,7.82
2022-08-09T10:14:51.303Z,8.07
2022-08-09T10:17:50.307Z,5.43
2022-08-09T10:20:33.083Z,7.05
2022-08-09T10:23:20.384Z,8.55
2022-08-09T10:26:06.881Z,7.20
2022-08-09T10:28:49.075Z,6.90
2022-08-09T10:32:35.728Z,8.70
2022-08-09T10:34:33.474Z,8.60
2022-08-09T10:37:04.484Z,9.57
2022-08-09T10:39:40.542Z,5.90
2022-08-09T10:42:18.985Z,9.75
2022-08-09T10:44:57.493Z,10.73
2022-08-09T10:48:26.218Z,8.47
2022-08-09T10:50:51.920Z,6.75
2022-08-09T10:53:46.569Z,7.93
2022-08-09T10:56:23.323Z,12.13
2022-08-09T10:58:54.020Z,8.52
2022-08-09T11:03:13.708Z,6.73
2022-08-09T11:04:35.368Z,7.88
2022-08-09T11:07:55.063Z,9.00
2022-08-09T11:10:54.792Z,5.18
2022-08-09T11:13:50.743Z,11.65
2022-08-09T11:16:50.969Z,8.02
2022-08-09T11:20:19.785Z,5.97
2022-08-09T11:23:02.852Z,6.45
2022-08-09T11:25:47.200Z,6.67
2022-08-09T11:28:56.186Z,5.72
2022-08-09T11:31:52.872Z,5.73
2022-08-09T11:34:42.842Z,7.63
2022-08-09T11:37:18.222Z,7.20
2022-08-09T11:40:04.233Z,8.98
2022-08-09T11:42:46.952Z,7.90
2022-08-09T11:45:42.220Z,7.93
2022-08-09T11:48:26.579Z,7.05
2022-08-09T11:53:00.786Z,5.47
2022-08-09T11:54:28.983Z,9.40
2022-08-09T11:57:47.649Z,6.18
2022-08-09T12:00:27.837Z,7.40
2022-08-09T12:02:59.179Z,6.38
2022-08-09T12:05:39.882Z,4.97
2022-08-09T12:08:21.679Z,5.93
2022-08-09T12:10:53.841Z,8.02
2022-08-09T12:14:07.397Z,10.40
2022-08-09T12:16:37.813Z,6.50
2022-08-09T12:19:12.126Z,8.10
2022-08-09T12:21:50.243Z,6.50
2022-08-09T12:24:24.927Z,7.90
2022-08-09T12:29:10.174Z,6.28
2022-08-09T12:30:02.116Z,5.93
2022-08-09T12:32:48.740Z,5.00
2022-08-09T12:35:21.689Z,7.30
2022-08-09T12:37:54.463Z,5.53
2022-08-09T12:40:27.271Z,5.63
2022-08-09T12:42:57.704Z,5.88
2022-08-09T12:45:34.899Z,10.07
2022-08-09T12:48:19.898Z,6.10
2022-08-09T12:50:58.437Z,5.22
2022-08-09T12:53:38.672Z,6.38
2022-08-09T12:56:39.259Z,7.32
2022-08-09T12:59:10.959Z,6.20
2022-08-09T13:01:48.730Z,8.98
2022-08-09T13:04:36.894Z,7.78
2022-08-09T13:07:16.581Z,9.70
2022-08-09T13:09:55.412Z,15.52
2022-08-09T13:12:30.758Z,7.25
2022-08-09T13:15:08.044Z,7.07
2022-08-09T13:18:02.655Z,8.57
2022-08-09T13:22:33.035Z,6.78
2022-08-09T13:24:44.697Z,7.32
2022-08-09T13:26:42.209Z,8.88
2022-08-09T13:29:14.108Z,6.90
2022-08-09T13:32:16.212Z,6.55
2022-08-09T13:34:52.083Z,6.70
2022-08-09T13:37:50.427Z,6.33
2022-08-09T13:41:50.813Z,7.80
2022-08-09T13:43:09.565Z,4.35
2022-08-09T13:46:42.556Z,5.20
2022-08-09T13:48:30.024Z,10.60
2022-08-09T13:50:59.852Z,4.85
2022-08-09T13:53:41.444Z,5.00
2022-08-09T13:56:14.199Z,5.00
2022-08-09T13:58:46.646Z,6.88
2022-08-09T14:01:56.253Z,8.27
2022-08-09T14:04:11.502Z,7.22
2022-08-09T14:06:43.855Z,9.37
2022-08-09T14:09:16.393Z,7.00
2022-08-09T14:11:47.237Z,6.20
2022-08-09T14:14:26.819Z,5.43
2022-08-09T14:16:58.614Z,5.32
2022-08-09T14:19:33.363Z,10.40
2022-08-09T14:22:03.707Z,8.57
2022-08-09T14:24:33.625Z,3.97
2022-08-09T14:27:03.579Z,6.95
2022-08-09T14:30:34.593Z,3.92
2022-08-09T14:32:43.028Z,9.13
2022-08-09T14:35:14.240Z,6.10
2022-08-09T14:38:02.433Z,8.70
2022-08-09T14:41:00.606Z,7.03
2022-08-09T14:43:23.571Z,7.30
2022-08-09T14:46:51.265Z,8.10
2022-08-09T14:48:45.587Z,5.07
2022-08-09T14:51:15.257Z,9.30
2022-08-09T14:53:48.684Z,5.45
2022-08-09T14:56:22.491Z,5.07
2022-08-09T14:58:57.862Z,4.30
2022-08-09T15:01:30.327Z,4.68
2022-08-09T15:04:00.328Z,6.22
2022-08-09T15:06:31.317Z,6.80
2022-08-09T15:09:01.357Z,8.00
2022-08-09T15:11:31.069Z,5.80
2022-08-09T15:14:04.814Z,5.25
2022-08-09T15:16:45.941Z,4.93
2022-08-09T15:19:19.966Z,7.78
2022-08-09T15:21:55.328Z,4.97
2022-08-09T15:24:29.749Z,6.43
2022-08-09T15:26:59.837Z,6.57
2022-08-09T15:30:58.561Z,4.60
2022-08-09T15:32:29.059Z,5.60
2022-08-09T15:35:01.049Z,4.43
2022-08-09T15:37:56.773Z,6.07
2022-08-09T15:40:32.297Z,5.10
2022-08-09T15:43:03.593Z,4.70
2022-08-09T15:46:02.844Z,6.85
2022-08-09T15:48:29.484Z,6.40
2022-08-09T15:51:02.225Z,5.47
2022-08-09T15:54:06.894Z,6.03
2022-08-09T15:56:41.505Z,4.45
2022-08-09T15:59:14.335Z,4.88
2022-08-09T16:01:44.042Z,4.68
2022-08-09T16:04:16.415Z,4.90
2022-08-09T16:06:52.785Z,5.00
2022-08-09T16:09:32.492Z,3.65
2022-08-09T16:12:13.672Z,4.57
2022-08-09T16:14:45.881Z,5.15
2022-08-09T16:17:17.005Z,5.53
2022-08-09T16:20:04.166Z,5.20
2022-08-09T16:22:42.055Z,5.70
2022-08-09T16:25:14.359Z,7.75
2022-08-09T16:27:47.931Z,5.57
2022-08-09T16:30:28.492Z,3.90
2022-08-09T16:33:11.608Z,7.53
2022-08-09T16:35:57.078Z,4.45
2022-08-09T16:38:29.851Z,4.10
2022-08-09T16:41:04.039Z,5.38
2022-08-09T16:43:34.236Z,5.80
2022-08-09T16:46:10.848Z,6.80
2022-08-09T16:48:54.052Z,4.72
2022-08-09T16:51:35.258Z,5.13
2022-08-09T16:54:25.950Z,4.80
2022-08-09T16:56:54.927Z,5.20
2022-08-09T16:59:26.217Z,6.18
2022-08-09T17:02:04.468Z,6.05
2022-08-09T17:04:35.262Z,6.05
2022-08-09T17:08:45.395Z,4.40
2022-08-09T17:10:04.040Z,5.68
2022-08-09T17:12:34.081Z,4.57
2022-08-09T17:15:17.954Z,5.38
2022-08-09T17:18:00.458Z,9.80
2022-08-09T17:20:35.235Z,5.30
2022-08-09T17:23:14.786Z,4.75
2022-08-09T17:25:44.988Z,6.40
2022-08-09T17:28:22.644Z,6.38
2022-08-09T17:30:53.107Z,6.82
2022-08-09T17:33:23.377Z,5.90
2022-08-09T17:35:53.620Z,4.97
2022-08-09T17:38:34.109Z,7.40
2022-08-09T17:41:08.479Z,5.88
2022-08-09T17:43:38.530Z,6.85
2022-08-09T17:46:10.124Z,6.32
2022-08-09T17:48:52.308Z,6.13
2022-08-09T17:51:23.204Z,4.90
2022-08-09T17:53:56.423Z,5.50
2022-08-09T17:56:29.251Z,6.13
2022-08-09T17:59:09.415Z,4.40
2022-08-09T18:02:06.573Z,4.80
2022-08-09T18:04:31.737Z,3.97
2022-08-09T18:07:04.610Z,6.28
2022-08-09T18:09:41.588Z,5.00
2022-08-09T18:12:15.343Z,4.07
2022-08-09T18:14:53.692Z,5.68
2022-08-09T18:17:27.287Z,6.85
2022-08-09T18:20:55.073Z,4.15
2022-08-09T18:23:07.412Z,4.70
2022-08-09T18:25:50.869Z,5.32
2022-08-09T18:30:35.239Z,4.90
2022-08-09T18:31:15.401Z,3.80
2022-08-09T18:33:54.932Z,4.20
2022-08-09T18:36:25.559Z,5.05
2022-08-09T18:39:02.315Z,6.35
2022-08-09T18:41:36.967Z,3.55
2022-08-09T18:44:13.622Z,5.18
2022-08-09T18:46:47.335Z,3.47
2022-08-09T18:49:23.849Z,7.60
2022-08-09T18:51:55.106Z,4.13
2022-08-09T18:54:29.583Z,6.87
2022-08-09T18:57:05.461Z,5.93
2022-08-09T18:59:48.463Z,4.22
2022-08-09T19:02:19.683Z,7.07
2022-08-09T19:05:03.894Z,5.88
2022-08-09T19:07:39.782Z,4.53
2022-08-09T19:10:14.096Z,8.95
2022-08-09T19:13:00.361Z,4.50
2022-08-09T19:15:40.087Z,4.68
2022-08-09T19:18:17.058Z,5.55
2022-08-09T19:20:52.247Z,5.55
2022-08-09T19:24:33.463Z,3.22
2022-08-09T19:26:18.291Z,4.75
2022-08-09T19:28:54.762Z,4.85
2022-08-09T19:31:27.150Z,6.03
2022-08-09T19:33:56.887Z,3.45
2022-08-09T19:36:30.896Z,4.45
2022-08-09T19:39:05.483Z,4.93
2022-08-09T19:41:35.898Z,5.40
2022-08-09T19:44:08.366Z,3.65
2022-08-09T19:46:50.663Z,5.67
2022-08-09T19:50:07.060Z,5.47
2022-08-09T19:52:13.266Z,8.65
2022-08-09T19:54:43.973Z,5.53
2022-08-09T19:57:13.739Z,4.90
2022-08-09T20:00:05.417Z,4.60
2022-08-09T20:04:12.666Z,5.90
2022-08-09T20:05:29.693Z,4.35
2022-08-09T20:08:16.002Z,3.35
2022-08-09T20:10:56.040Z,3.50
2022-08-09T20:13:27.307Z,3.90
2022-08-09T20:16:33.876Z,3.70
2022-08-09T20:19:03.702Z,8.50
2022-08-09T20:21:55.260Z,5.78
2022-08-09T20:24:31.957Z,6.43
2022-08-09T20:27:07.898Z,3.30
2022-08-09T20:29:39.597Z,12.90
2022-08-09T20:32:29.220Z,5.13
2022-08-09T20:35:02.126Z,6.30
2022-08-09T20:38:19.766Z,4.60
2022-08-09T20:40:26.416Z,5.82
2022-08-09T20:42:59.779Z,3.70
2022-08-09T20:46:00.123Z,4.80
2022-08-09T20:48:22.814Z,5.60
2022-08-09T20:50:58.140Z,6.53
2022-08-09T20:53:36.564Z,3.88
2022-08-09T20:56:21.055Z,4.65
2022-08-09T20:58:54.515Z,4.80
2022-08-09T21:01:34.696Z,6.00
2022-08-09T21:05:54.686Z,4.60
2022-08-09T21:07:13.910Z,3.97
2022-08-09T21:09:56.617Z,3.78
2022-08-09T21:15:23.844Z,3.85
2022-08-09T21:18:11.713Z,5.70
2022-08-09T21:20:56.560Z,4.25
2022-08-09T21:23:47.544Z,8.40
2022-08-09T21:26:16.081Z,7.43
2022-08-09T21:28:55.818Z,4.60
2022-08-09T21:31:49.453Z,4.47
2022-08-09T21:34:28.640Z,5.30
2022-08-09T21:37:01.837Z,5.15
2022-08-09T21:39:42.012Z,4.88
2022-08-09T21:42:12.313Z,4.80
2022-08-09T21:44:42.906Z,6.95
2022-08-09T21:47:18.171Z,5.00
2022-08-09T21:49:49.579Z,4.10
2022-08-09T21:52:23.974Z,4.85
2022-08-09T21:55:03.801Z,3.72
2022-08-09T21:57:38.788Z,5.00
2022-08-09T22:00:32.378Z,4.33
2022-08-09T22:03:04.817Z,6.90
2022-08-09T22:05:41.609Z,6.70
2022-08-09T22:08:16.438Z,4.90
2022-08-09T22:11:50.291Z,5.85
2022-08-09T22:13:37.166Z,4.88
2022-08-09T22:16:09.288Z,5.05
2022-08-09T22:18:52.848Z,4.70
2022-08-09T22:21:27.347Z,9.95
2022-08-09T22:24:24.284Z,5.50
2022-08-09T22:26:55.112Z,5.22
2022-08-09T22:29:38.405Z,6.78
2022-08-09T22:32:29.752Z,7.95
2022-08-09T22:35:06.259Z,5.22
2022-08-09T22:37:40.289Z,6.93
2022-08-09T22:40:20.262Z,4.70
2022-08-09T22:42:50.213Z,4.03
2022-08-09T22:48:16.314Z,10.20
2022-08-09T22:48:19.124Z,6.90
2022-08-09T22:50:59.432Z,7.47
2022-08-09T22:53:33.285Z,5.37
2022-08-09T22:56:33.430Z,5.57
2022-08-09T22:59:05.964Z,7.60
2022-08-09T23:01:53.667Z,6.50
2022-08-09T23:04:25.557Z,6.40
2022-08-09T23:07:11.208Z,6.35
2022-08-09T23:09:43.794Z,6.05
2022-08-09T23:12:16.078Z,5.93
2022-08-09T23:14:45.780Z,9.57
2022-08-09T23:17:16.049Z,7.60
2022-08-09T23:20:06.522Z,6.88
2022-08-09T23:22:35.840Z,7.05
2022-08-09T23:25:05.976Z,8.03
2022-08-09T23:27:59.661Z,6.40
2022-08-09T23:30:27.942Z,7.38
2022-08-09T23:32:57.606Z,5.32
2022-08-09T23:35:27.494Z,7.50
2022-08-09T23:37:57.193Z,6.93
2022-08-09T23:40:26.886Z,7.37
2022-08-09T23:42:59.241Z,8.70
2022-08-09T23:45:37.531Z,6.65
2022-08-09T23:48:09.198Z,5.77
2022-08-09T23:50:39.087Z,6.13
2022-08-09T23:53:10.408Z,6.00
2022-08-09T23:55:49.566Z,8.50
2022-08-09T23:58:26.090Z,8.60
